Time,TemperatureF,DewpointF,PressureIn,WindDirection,WindDirectionDegrees,WindSpeedMPH,WindSpeedGustMPH,Humidity,HourlyPrecipIn,Conditions,Clouds,dailyrainin,SoftwareType,DateUTC
2013-09-20 00:01:00,72.9,72.3,29.93,SSE,157,0.0,-999.0,98,-99.99,,,0.00,Acu-Link.com,2013-09-20 05:01:00,
2013-09-20 00:19:00,72.5,71.9,29.93,NE,45,0.0,-999.0,98,-99.99,,,0.00,Acu-Link.com,2013-09-20 05:19:00,
2013-09-20 00:34:00,72.3,71.7,29.92,East,90,0.0,-999.0,98,-99.99,,,0.00,Acu-Link.com,2013-09-20 05:34:00,
2013-09-20 00:54:00,72.1,71.5,29.93,SSE,157,0.0,-999.0,98,-99.99,,,0.00,Acu-Link.com,2013-09-20 05:54:00,
2013-09-20 01:13:00,71.4,70.8,29.93,SSW,202,0.0,-999.0,98,-99.99,,,0.00,Acu-Link.com,2013-09-20 06:13:00,
2013-09-20 01:28:00,71.2,70.6,29.92,SSE,157,0.0,-999.0,98,-99.99,,,0.00,Acu-Link.com,2013-09-20 06:28:00,
2013-09-20 01:45:00,71.2,70.6,29.92,SE,135,0.0,-999.0,98,-99.99,,,0.00,Acu-Link.com,2013-09-20 06:45:00,
2013-09-20 02:00:00,70.9,70.3,29.92,SSE,157,0.0,-999.0,98,-99.99,,,0.00,Acu-Link.com,2013-09-20 07:00:00,
2013-09-20 02:16:00,71.2,70.6,29.91,East,90,0.0,-999.0,98,-99.99,,,0.00,Acu-Link.com,2013-09-20 07:16:00,
2013-09-20 02:33:00,71.4,70.8,29.91,SSE,157,0.0,-999.0,98,-99.99,,,0.00,Acu-Link.com,2013-09-20 07:33:00,
2013-09-20 02:52:00,71.4,70.8,29.91,SE,135,0.0,-999.0,98,-99.99,,,0.00,Acu-Link.com,2013-09-20 07:52:00,
2013-09-20 03:33:00,71.2,70.6,29.91,ENE,67,0.0,-999.0,98,-99.99,,,0.00,Acu-Link.com,2013-09-20 08:33:00,
2013-09-20 03:51:00,71.2,70.6,29.91,NE,45,0.0,-999.0,98,-99.99,,,0.00,Acu-Link.com,2013-09-20 08:51:00,
2013-09-20 04:06:00,71.2,70.6,29.90,ESE,112,0.0,-999.0,98,-99.99,,,0.00,Acu-Link.com,2013-09-20 09:06:00,
2013-09-20 04:25:00,71.2,70.6,29.90,NNW,337,0.0,-999.0,98,-99.99,,,0.00,Acu-Link.com,2013-09-20 09:25:00,
2013-09-20 04:41:00,71.4,70.8,29.90,East,90,0.0,-999.0,98,-99.99,,,0.00,Acu-Link.com,2013-09-20 09:41:00,
2013-09-20 04:57:00,72.1,71.5,29.90,NW,315,0.0,-999.0,98,-99.99,,,0.00,Acu-Link.com,2013-09-20 09:57:00,
2013-09-20 05:14:00,72.1,71.5,29.90,NNE,22,0.0,-999.0,98,-99.99,,,0.00,Acu-Link.com,2013-09-20 10:14:00,
2013-09-20 05:32:00,71.8,71.2,29.89,SE,135,0.0,-999.0,98,-99.99,,,0.00,Acu-Link.com,2013-09-20 10:32:00,
2013-09-20 05:48:00,72.0,71.4,29.90,SE,135,0.0,-999.0,98,-99.99,,,0.00,Acu-Link.com,2013-09-20 10:48:00,
2013-09-20 06:04:00,72.1,71.5,29.89,NW,315,0.0,-999.0,98,-99.99,,,0.00,Acu-Link.com,2013-09-20 11:04:00,
2013-09-20 06:30:00,72.1,71.5,29.89,WNW,292,0.0,-999.0,98,-99.99,,,0.00,Acu-Link.com,2013-09-20 11:30:00,
2013-09-20 06:50:00,72.9,72.3,29.89,SE,135,1.7,-999.0,98,-99.99,,,0.00,Acu-Link.com,2013-09-20 11:50:00,
2013-09-20 07:07:00,73.0,72.4,29.88,ESE,112,0.0,-999.0,98,-99.99,,,0.00,Acu-Link.com,2013-09-20 12:07:00,
2013-09-20 07:28:00,73.8,73.2,29.88,SSE,157,2.7,-999.0,98,-99.99,,,0.00,Acu-Link.com,2013-09-20 12:28:00,
2013-09-20 07:43:00,75.0,74.4,29.87,SSE,157,3.7,-999.0,98,-99.99,,,0.00,Acu-Link.com,2013-09-20 12:43:00,
2013-09-20 07:59:00,75.9,75.3,29.87,South,180,2.7,-999.0,98,-99.99,,,0.00,Acu-Link.com,2013-09-20 12:59:00,
2013-09-20 08:17:00,76.5,75.9,29.87,SSW,202,3.2,-999.0,98,-99.99,,,0.00,Acu-Link.com,2013-09-20 13:17:00,
2013-09-20 08:33:00,77.5,76.9,29.87,South,180,2.2,-999.0,98,-99.99,,,0.00,Acu-Link.com,2013-09-20 13:33:00,
2013-09-20 08:48:00,78.8,78.2,29.87,SSW,202,2.7,-999.0,98,-99.99,,,0.00,Acu-Link.com,2013-09-20 13:48:00,
2013-09-20 09:06:00,79.7,79.1,29.87,SSE,157,3.2,-999.0,98,-99.99,,,0.00,Acu-Link.com,2013-09-20 14:06:00,
2013-09-20 09:27:00,81.0,80.4,29.86,SSE,157,3.2,-999.0,98,-99.99,,,0.00,Acu-Link.com,2013-09-20 14:27:00,
2013-09-20 09:42:00,81.3,80.7,29.86,SE,135,3.7,-999.0,98,-99.99,,,0.00,Acu-Link.com,2013-09-20 14:42:00,
2013-09-20 09:57:00,82.4,81.8,29.86,South,180,3.7,-999.0,98,-99.99,,,0.00,Acu-Link.com,2013-09-20 14:57:00,
2013-09-20 10:20:00,83.1,82.5,29.86,South,180,3.7,-999.0,98,-99.99,,,0.00,Acu-Link.com,2013-09-20 15:20:00,
2013-09-20 10:49:00,85.1,82.5,29.85,ESE,112,3.2,-999.0,92,-99.99,,,0.00,Acu-Link.com,2013-09-20 15:49:00,
2013-09-20 11:07:00,86.2,82.2,29.85,SSW,202,5.8,-999.0,88,-99.99,,,0.00,Acu-Link.com,2013-09-20 16:07:00,
2013-09-20 11:28:00,87.8,82.0,29.84,East,90,4.7,-999.0,83,-99.99,,,0.00,Acu-Link.com,2013-09-20 16:28:00,
2013-09-20 11:50:00,91.4,82.3,29.82,SSE,157,8.3,-999.0,75,-99.99,,,0.00,Acu-Link.com,2013-09-20 16:50:00,
2013-09-20 12:14:00,88.5,80.7,29.81,SE,135,4.2,-999.0,78,-99.99,,,0.00,Acu-Link.com,2013-09-20 17:14:00,
2013-09-20 12:31:00,89.8,80.8,29.80,SSE,157,3.2,-999.0,75,-99.99,,,0.00,Acu-Link.com,2013-09-20 17:31:00,
2013-09-20 12:51:00,90.0,80.6,29.79,SSE,157,4.2,-999.0,74,-99.99,,,0.00,Acu-Link.com,2013-09-20 17:51:00,
2013-09-20 13:06:00,91.0,80.3,29.78,South,180,6.3,-999.0,71,-99.99,,,0.00,Acu-Link.com,2013-09-20 18:06:00,
2013-09-20 13:21:00,89.4,79.6,29.77,SE,135,2.7,-999.0,73,-99.99,,,0.00,Acu-Link.com,2013-09-20 18:21:00,
2013-09-20 13:42:00,90.5,79.8,29.76,SE,135,3.2,-999.0,71,-99.99,,,0.00,Acu-Link.com,2013-09-20 18:42:00,
2013-09-20 13:59:00,90.1,79.4,29.75,SE,135,1.1,-999.0,71,-99.99,,,0.00,Acu-Link.com,2013-09-20 18:59:00,
2013-09-20 14:14:00,80.8,80.2,29.76,SSW,202,5.8,-999.0,98,-99.99,,,0.00,Acu-Link.com,2013-09-20 19:14:00,
2013-09-20 14:47:00,84.6,84.0,29.72,NE,45,1.7,-999.0,98,-99.99,,,0.25,Acu-Link.com,2013-09-20 19:47:00,
2013-09-20 15:14:00,85.3,84.7,29.72,ESE,112,1.1,-999.0,98,-99.99,,,0.25,Acu-Link.com,2013-09-20 20:14:00,
2013-09-20 15:30:00,89.1,88.5,29.71,South,180,0.0,-999.0,98,-99.99,,,0.25,Acu-Link.com,2013-09-20 20:30:00,
2013-09-20 15:46:00,87.6,87.0,29.71,SSE,157,2.2,-999.0,98,-99.99,,,0.25,Acu-Link.com,2013-09-20 20:46:00,
2013-09-20 16:05:00,87.6,83.9,29.70,ESE,112,1.7,-999.0,89,-99.99,,,0.25,Acu-Link.com,2013-09-20 21:05:00,
2013-09-20 16:20:00,86.5,85.9,29.71,NNE,22,2.7,-999.0,98,-99.99,,,0.25,Acu-Link.com,2013-09-20 21:20:00,
2013-09-20 16:35:00,85.5,84.9,29.71,North,0,2.2,-999.0,98,-99.99,,,0.25,Acu-Link.com,2013-09-20 21:35:00,
2013-09-20 16:50:00,83.7,83.1,29.71,SSW,202,0.0,-999.0,98,-99.99,,,0.25,Acu-Link.com,2013-09-20 21:50:00,
2013-09-20 17:06:00,82.6,82.0,29.71,SE,135,0.0,-999.0,98,-99.99,,,0.25,Acu-Link.com,2013-09-20 22:06:00,
2013-09-20 17:21:00,79.9,79.3,29.72,WNW,292,4.2,-999.0,98,-99.99,,,0.26,Acu-Link.com,2013-09-20 22:21:00,
2013-09-20 17:36:00,78.1,77.5,29.72,WNW,292,3.2,-999.0,98,-99.99,,,0.27,Acu-Link.com,2013-09-20 22:36:00,
2013-09-20 17:51:00,75.9,75.3,29.77,SSW,202,3.2,-999.0,98,-99.99,,,0.56,Acu-Link.com,2013-09-20 22:51:00,
2013-09-20 18:06:00,74.3,73.7,29.76,North,0,2.7,-999.0,98,-99.99,,,0.85,Acu-Link.com,2013-09-20 23:06:00,
2013-09-20 18:21:00,72.7,72.1,29.75,SW,225,3.2,-999.0,98,-99.99,,,1.00,Acu-Link.com,2013-09-20 23:21:00,
2013-09-20 18:36:00,72.3,71.7,29.75,ESE,112,2.2,-999.0,98,-99.99,,,1.05,Acu-Link.com,2013-09-20 23:36:00,
2013-09-20 18:52:00,72.1,71.5,29.76,SSE,157,0.0,-999.0,98,-99.99,,,1.07,Acu-Link.com,2013-09-20 23:52:00,
2013-09-20 19:07:00,72.1,71.5,29.75,East,90,0.0,-999.0,98,-99.99,,,1.10,Acu-Link.com,2013-09-21 00:07:00,
2013-09-20 19:22:00,72.0,71.4,29.75,East,90,0.0,-999.0,98,-99.99,,,1.11,Acu-Link.com,2013-09-21 00:22:00,
2013-09-20 19:37:00,72.0,71.4,29.75,NE,45,0.0,-999.0,98,-99.99,,,1.13,Acu-Link.com,2013-09-21 00:37:00,
2013-09-20 19:53:00,72.0,71.4,29.76,SE,135,0.0,-999.0,98,-99.99,,,1.15,Acu-Link.com,2013-09-21 00:53:00,
2013-09-20 20:08:00,72.1,71.5,29.78,West,270,0.0,-999.0,98,-99.99,,,1.21,Acu-Link.com,2013-09-21 01:08:00,
2013-09-20 20:23:00,72.1,71.5,29.76,East,90,0.0,-999.0,98,-99.99,,,1.30,Acu-Link.com,2013-09-21 01:23:00,
2013-09-20 20:38:00,72.0,71.4,29.77,SE,135,0.0,-999.0,98,-99.99,,,1.36,Acu-Link.com,2013-09-21 01:38:00,
2013-09-20 20:53:00,72.3,71.7,29.76,ESE,112,0.0,-999.0,98,-99.99,,,1.36,Acu-Link.com,2013-09-21 01:53:00,
2013-09-20 21:08:00,72.3,71.7,29.76,East,90,0.0,-999.0,98,-99.99,,,1.37,Acu-Link.com,2013-09-21 02:08:00,
2013-09-20 21:23:00,72.7,72.1,29.78,SSW,202,3.7,-999.0,98,-99.99,,,1.38,Acu-Link.com,2013-09-21 02:23:00,
2013-09-20 21:38:00,72.7,72.1,29.76,SSE,157,1.7,-999.0,98,-99.99,,,1.77,Acu-Link.com,2013-09-21 02:38:00,
2013-09-20 21:53:00,72.7,72.1,29.74,SSE,157,0.0,-999.0,98,-99.99,,,1.79,Acu-Link.com,2013-09-21 02:53:00,
2013-09-20 22:08:00,72.5,71.9,29.74,ESE,112,0.0,-999.0,98,-99.99,,,1.79,Acu-Link.com,2013-09-21 03:08:00,
2013-09-20 22:24:00,72.7,72.1,29.74,ESE,112,0.0,-999.0,98,-99.99,,,1.79,Acu-Link.com,2013-09-21 03:24:00,
2013-09-20 22:39:00,72.9,72.3,29.75,NE,45,0.0,-999.0,98,-99.99,,,1.79,Acu-Link.com,2013-09-21 03:39:00,
2013-09-20 22:54:00,73.0,72.4,29.74,ENE,67,0.0,-999.0,98,-99.99,,,1.84,Acu-Link.com,2013-09-21 03:54:00,
2013-09-20 23:09:00,73.4,72.8,29.74,NNE,22,0.0,-999.0,98,-99.99,,,1.84,Acu-Link.com,2013-09-21 04:09:00,
2013-09-20 23:24:00,73.8,73.2,29.72,ESE,112,0.0,-999.0,98,-99.99,,,1.84,Acu-Link.com,2013-09-21 04:24:00,
2013-09-20 23:39:00,73.9,73.3,29.72,West,270,0.0,-999.0,98,-99.99,,,1.84,Acu-Link.com,2013-09-21 04:39:00,
2013-09-20 23:54:00,73.9,73.3,29.71,ESE,112,0.0,-999.0,98,-99.99,,,1.84,Acu-Link.com,2013-09-21 04:54:00,